Time;durP1;ratioP1;P1;durP2;ratioP2;P2;SDS_P1;SDS_P2;PMS_P1;PMS_P2;Temp;Humidity;BMP_temperature;BMP_pressure;BME280_temperature;BME280_humidity;BME280_pressure;Samples;Min_cycle;Max_cycle;Signal;HPM_P1;HPM_P2
2021/10/19 03:33:36;;;;;;;19.17;13.47;;;;;;;12.41;63.38;99523.22;6885390;28;20220;-81
2021/10/19 03:36:58;;;;;;;16.70;11.70;;;;;;;12.91;62.36;99509.31;6885326;28;20216;-80
2021/10/19 03:40:19;;;;;;;17.37;12.27;;;;;;;12.94;62.19;99508.91;6895752;28;20719;-82
2021/10/19 03:43:41;;;;;;;15.07;12.33;;;;;;;13.12;61.71;99520.88;6895946;28;20647;-81
2021/10/19 03:47:03;;;;;;;17.20;13.20;;;;;;;13.11;61.57;99512.97;6897944;28;20333;-81
2021/10/19 03:50:26;;;;;;;17.97;13.80;;;;;;;12.71;62.55;99511.09;6896844;28;20311;-81
2021/10/19 03:53:47;;;;;;;14.87;12.10;;;;;;;12.96;62.77;99515.84;6895242;28;20228;-82
2021/10/19 03:57:09;;;;;;;14.53;11.90;;;;;;;13.14;62.06;99523.38;6895755;28;20564;-82
2021/10/19 04:00:30;;;;;;;14.93;12.20;;;;;;;13.24;61.72;99526.53;6895709;28;20228;-80
2021/10/19 04:03:52;;;;;;;15.23;13.50;;;;;;;13.20;61.91;99526.09;6895593;28;20207;-81
2021/10/19 04:07:15;;;;;;;16.20;11.63;;;;;;;13.43;61.58;99509.47;6895441;28;20598;-82
2021/10/19 04:10:36;;;;;;;11.50;10.30;;;;;;;13.57;61.12;99503.88;6919075;28;20223;-82
2021/10/19 04:13:58;;;;;;;14.97;11.37;;;;;;;13.23;61.43;99500.50;6922125;28;20619;-82
2021/10/19 04:17:20;;;;;;;13.53;11.70;;;;;;;13.27;62.06;99526.13;6922920;28;20204;-81
2021/10/19 04:20:41;;;;;;;13.83;11.60;;;;;;;13.21;62.53;99533.19;6922602;28;20235;-82
2021/10/19 04:24:05;;;;;;;13.33;11.40;;;;;;;13.31;62.31;99525.50;6921720;28;20215;-82
2021/10/19 04:27:26;;;;;;;15.10;12.17;;;;;;;13.32;62.18;99542.59;6921031;28;20267;-82
2021/10/19 04:30:50;;;;;;;15.00;12.40;;;;;;;13.32;62.06;99534.47;6895020;28;20232;-81
2021/10/19 04:34:12;;;;;;;13.50;11.80;;;;;;;13.45;61.84;99539.94;6897188;28;20799;-81
2021/10/19 04:37:35;;;;;;;15.00;12.10;;;;;;;13.40;62.15;99524.25;6894820;28;20205;-81
2021/10/19 04:40:57;;;;;;;14.63;11.60;;;;;;;13.48;62.03;99525.94;6894373;28;20228;-81
2021/10/19 04:44:19;;;;;;;13.47;11.40;;;;;;;13.69;61.56;99521.19;6892791;28;20212;-82
2021/10/19 04:47:41;;;;;;;11.87;10.67;;;;;;;13.89;60.65;99503.06;6892420;28;20270;-81
2021/10/19 04:51:02;;;;;;;11.07;9.87;;;;;;;13.94;60.69;99506.00;6891623;28;20245;-84
2021/10/19 04:54:24;;;;;;;11.77;9.67;;;;;;;13.58;61.30;99497.41;6887627;28;20228;-81
2021/10/19 04:57:47;;;;;;;11.53;10.33;;;;;;;13.82;61.47;99499.53;6866527;28;20666;-79
2021/10/19 05:01:08;;;;;;;12.50;11.17;;;;;;;13.60;61.71;99497.22;6867188;28;20221;-82
2021/10/19 05:04:30;;;;;;;14.37;10.80;;;;;;;13.59;62.16;99495.53;6866240;28;20216;-81
2021/10/19 05:07:52;;;;;;;9.30;8.27;;;;;;;13.92;61.10;99483.66;6866797;28;20260;-81
2021/10/19 05:11:13;;;;;;;10.30;8.63;;;;;;;14.15;60.72;99503.03;6866480;28;20283;-82
2021/10/19 05:14:36;;;;;;;9.60;8.47;;;;;;;14.06;60.44;99504.31;6865333;28;20240;-82
2021/10/19 05:17:58;;;;;;;10.87;8.83;;;;;;;14.12;60.51;99498.03;6866048;28;20209;-82
2021/10/19 05:21:19;;;;;;;11.40;9.67;;;;;;;14.09;60.47;99503.06;6865049;28;20387;-82
2021/10/19 05:24:41;;;;;;;13.17;9.70;;;;;;;14.22;60.19;99505.78;6864896;28;20237;-82
2021/10/19 05:28:02;;;;;;;13.23;10.60;;;;;;;14.11;60.33;99498.25;6869123;28;20270;-82
2021/10/19 05:31:25;;;;;;;14.00;10.83;;;;;;;13.89;60.98;99494.94;6918553;28;20278;-82
2021/10/19 05:34:47;;;;;;;12.70;10.80;;;;;;;13.90;61.06;99483.03;6919149;28;20211;-82
2021/10/19 05:38:09;;;;;;;13.93;11.67;;;;;;;14.14;60.92;99514.06;6920329;28;20586;-82
2021/10/19 05:41:30;;;;;;;14.53;11.90;;;;;;;14.32;60.34;99507.00;6894756;28;20228;-82
2021/10/19 05:44:52;;;;;;;13.80;10.67;;;;;;;14.27;60.43;99505.97;6891678;28;20204;-83
2021/10/19 05:48:15;;;;;;;14.80;10.47;;;;;;;14.39;59.85;99509.72;6894643;28;20235;-82
2021/10/19 05:51:37;;;;;;;13.73;11.30;;;;;;;14.07;60.76;99507.84;6893897;28;20630;-82
2021/10/19 05:54:58;;;;;;;14.27;11.50;;;;;;;13.50;62.04;99494.91;6889472;28;20219;-82
2021/10/19 05:58:20;;;;;;;16.80;12.23;;;;;;;12.88;64.82;99509.72;6894585;28;20263;-82
2021/10/19 06:01:41;;;;;;;11.70;10.47;;;;;;;13.69;62.87;99520.38;6893441;28;20228;-82
2021/10/19 06:05:05;;;;;;;13.17;11.00;;;;;;;13.51;63.19;99514.72;6896851;28;20231;-82
2021/10/19 06:08:26;;;;;;;14.77;10.70;;;;;;;14.12;61.91;99505.31;6890967;28;20249;-82
2021/10/19 06:11:48;;;;;;;12.77;11.27;;;;;;;14.18;61.40;99520.75;6889221;28;20240;-82
2021/10/19 06:15:10;;;;;;;17.13;15.20;;;;;;;14.43;60.87;99513.63;6889909;28;20711;-82
2021/10/19 06:18:31;;;;;;;25.30;18.00;;;;;;;14.31;60.87;99507.19;6889338;28;20296;-83
2021/10/19 06:21:54;;;;;;;17.07;13.30;;;;;;;14.10;61.15;99489.25;6888659;28;20581;-82
2021/10/19 06:25:16;;;;;;;15.77;12.33;;;;;;;14.21;60.92;99520.38;6888795;28;20718;-81
2021/10/19 06:28:37;;;;;;;17.07;13.40;;;;;;;13.79;62.46;99518.06;6889226;28;20275;-81
2021/10/19 06:31:59;;;;;;;14.37;12.87;;;;;;;13.79;61.45;99450.28;6890786;28;20236;-82
2021/10/19 06:35:21;;;;;;;14.90;12.67;;;;;;;14.19;61.50;99517.03;6895015;28;20208;-82
2021/10/19 06:38:44;;;;;;;13.93;11.33;;;;;;;13.97;62.74;99529.94;6895723;28;20208;-82
2021/10/19 06:42:05;;;;;;;13.00;10.90;;;;;;;14.52;61.49;99518.63;6893918;28;20239;-83
2021/10/19 06:45:27;;;;;;;13.07;11.10;;;;;;;14.75;60.75;99531.72;6897784;28;20204;-82
2021/10/19 06:48:49;;;;;;;14.27;11.07;;;;;;;14.80;60.28;99512.91;6896153;28;20228;-82
2021/10/19 06:52:10;;;;;;;11.87;10.43;;;;;;;15.00;60.04;99521.81;6894630;28;20228;-82
2021/10/19 06:55:33;;;;;;;15.03;11.67;;;;;;;14.86;60.20;99520.22;6894809;28;20208;-83
2021/10/19 06:58:55;;;;;;;13.67;10.73;;;;;;;14.37;61.53;99528.06;6893908;28;20251;-81
2021/10/19 07:02:17;;;;;;;12.37;11.07;;;;;;;14.84;60.21;99514.13;6883745;28;20229;-82
2021/10/19 07:05:39;;;;;;;14.70;11.80;;;;;;;15.06;59.96;99532.66;6867971;28;20205;-83
2021/10/19 07:09:00;;;;;;;16.90;11.87;;;;;;;15.09;59.94;99521.34;6868505;28;20236;-83
2021/10/19 07:12:23;;;;;;;15.90;11.73;;;;;;;15.09;59.72;99536.78;6867160;28;20415;-82
2021/10/19 07:15:45;;;;;;;13.47;11.33;;;;;;;15.02;59.95;99541.41;6868396;28;20547;-83
2021/10/19 07:19:09;;;;;;;13.30;11.07;;;;;;;14.85;60.04;99546.50;6867865;28;20209;-82
2021/10/19 07:22:31;;;;;;;15.00;11.17;;;;;;;15.17;59.57;99553.66;6894472;28;20220;-80
2021/10/19 07:25:53;;;;;;;11.83;10.30;;;;;;;15.30;59.38;99537.34;6891095;28;20213;-80
2021/10/19 07:29:16;;;;;;;12.23;10.00;;;;;;;15.53;59.07;99553.94;6890978;28;20238;-80
2021/10/19 07:32:37;;;;;;;12.77;10.80;;;;;;;15.79;58.69;99540.16;6881821;28;20256;-80
2021/10/19 07:35:59;;;;;;;13.27;11.03;;;;;;;15.87;58.61;99542.59;6889165;28;20216;-81
2021/10/19 07:39:21;;;;;;;13.80;11.30;;;;;;;15.90;58.45;99541.34;6880583;28;20205;-81
2021/10/19 07:42:43;;;;;;;18.67;12.07;;;;;;;15.74;58.93;99539.19;6888625;28;20228;-80
2021/10/19 07:46:06;;;;;;;14.20;11.70;;;;;;;15.65;59.19;99544.03;6890376;28;20664;-82
2021/10/19 07:49:28;;;;;;;15.63;11.90;;;;;;;15.58;60.17;99567.69;6879569;28;20716;-80
2021/10/19 07:52:51;;;;;;;15.40;11.60;;;;;;;15.16;61.13;99551.19;6862004;28;20242;-80
2021/10/19 07:56:14;;;;;;;13.87;11.70;;;;;;;15.72;60.30;99560.28;6867754;28;20206;-83
2021/10/19 07:59:35;;;;;;;18.80;12.17;;;;;;;15.78;60.20;99562.13;6880182;28;20210;-80
2021/10/19 08:02:58;;;;;;;14.87;11.93;;;;;;;15.64;60.38;99571.44;6890446;28;20229;-82
2021/10/19 08:06:21;;;;;;;12.57;11.27;;;;;;;15.93;60.06;99573.53;6891050;28;20206;-87
2021/10/19 08:09:43;;;;;;;13.40;11.40;;;;;;;16.14;59.97;99575.88;6878183;28;20232;-81
2021/10/19 08:13:04;;;;;;;15.80;12.03;;;;;;;16.20;59.93;99602.19;6864363;28;20236;-82
2021/10/19 08:16:26;;;;;;;13.50;11.47;;;;;;;16.20;59.93;99594.88;6863776;28;20604;-80
2021/10/19 08:19:49;;;;;;;12.90;10.80;;;;;;;16.59;59.25;99588.28;6881752;28;20212;-85
2021/10/19 08:23:11;;;;;;;14.03;12.63;;;;;;;16.62;58.07;99575.03;6890707;28;20288;-81
2021/10/19 08:26:32;;;;;;;19.63;13.77;;;;;;;16.26;60.07;99545.00;6890767;28;20673;-82
2021/10/19 08:29:54;;;;;;;16.60;11.83;;;;;;;16.77;57.96;99589.13;6889744;28;20232;-84
2021/10/19 08:33:16;;;;;;;16.17;11.70;;;;;;;16.33;59.60;99592.03;6889967;28;20604;-80
2021/10/19 08:36:39;;;;;;;13.73;12.30;;;;;;;16.07;59.15;99589.53;6891775;28;20228;-84
2021/10/19 08:40:01;;;;;;;11.53;10.33;;;;;;;15.59;61.45;99584.84;6891893;28;20486;-81
2021/10/19 08:43:23;;;;;;;11.07;9.27;;;;;;;16.42;59.89;99582.56;6890018;28;20225;-82
2021/10/19 08:46:44;;;;;;;14.27;11.00;;;;;;;16.37;59.93;99586.97;6890012;28;20685;-81
2021/10/19 08:50:07;;;;;;;10.53;9.43;;;;;;;16.73;60.06;99593.34;6891306;28;20268;-81
2021/10/19 08:53:30;;;;;;;9.93;8.87;;;;;;;16.67;59.23;99590.69;6889647;28;20221;-81
2021/10/19 08:56:52;;;;;;;15.90;10.77;;;;;;;16.95;58.88;99596.47;6888178;28;20198;-83
2021/10/19 09:00:14;;;;;;;18.77;14.53;;;;;;;16.89;58.46;99591.94;6890057;28;20213;-81
2021/10/19 09:03:36;;;;;;;11.53;10.33;;;;;;;17.23;58.12;99622.13;6889468;28;20197;-81
2021/10/19 09:06:58;;;;;;;12.27;10.67;;;;;;;17.17;57.73;99617.59;6888914;28;20215;-80
2021/10/19 09:10:21;;;;;;;16.53;10.10;;;;;;;16.82;57.88;99611.06;6888300;28;20221;-82
2021/10/19 09:13:52;;;;;;;11.97;10.43;;;;;;;16.85;58.37;99588.00;6864743;28;20233;-83
2021/10/19 09:17:14;;;;;;;13.03;10.53;;;;;;;16.72;58.86;99588.13;6875418;28;20384;-80
2021/10/19 09:20:36;;;;;;;10.37;8.87;;;;;;;17.05;57.15;99573.06;6886008;28;20251;-81
2021/10/19 09:24:19;;;;;;;11.60;10.40;;;;;;;17.37;57.25;99610.00;6891064;28;20210;-80
2021/10/19 09:27:44;;;;;;;9.90;7.97;;;;;;;17.32;56.60;99606.28;6890445;28;20231;-80
2021/10/19 09:31:05;;;;;;;8.30;7.50;;;;;;;17.35;56.92;99614.03;6888661;28;20239;-80
2021/10/19 09:34:29;;;;;;;15.40;9.37;;;;;;;17.50;57.34;99609.88;6889571;28;20206;-83
2021/10/19 09:37:56;;;;;;;6.97;6.23;;;;;;;16.61;58.03;99586.16;6884967;28;20202;-83
2021/10/19 09:41:18;;;;;;;5.03;4.53;;;;;;;17.26;56.83;99599.03;6889561;28;20233;-80
2021/10/19 09:44:51;;;;;;;4.73;4.33;;;;;;;17.29;56.32;99574.88;6890023;28;20219;-80
2021/10/19 09:48:14;;;;;;;4.60;4.20;;;;;;;17.70;55.62;99574.16;6890186;28;20235;-80
2021/10/19 09:51:37;;;;;;;4.37;3.97;;;;;;;17.96;55.24;99580.03;6889395;28;20228;-80
2021/10/19 09:54:59;;;;;;;6.17;3.97;;;;;;;17.70;56.74;99590.50;6890827;28;20235;-81
2021/10/19 09:58:22;;;;;;;7.07;4.70;;;;;;;17.58;57.23;99581.47;6891232;28;20207;-81
2021/10/19 10:01:46;;;;;;;3.73;3.43;;;;;;;17.55;57.89;99584.63;6889309;28;20223;-82
2021/10/19 10:05:08;;;;;;;4.27;3.80;;;;;;;17.44;58.31;99548.09;6887583;28;20239;-81
2021/10/19 10:08:30;;;;;;;4.57;4.03;;;;;;;17.54;58.41;99577.50;6892887;28;20247;-84
2021/10/19 10:11:51;;;;;;;5.57;4.17;;;;;;;17.08;60.44;99590.88;6893764;28;20262;-80
2021/10/19 10:15:24;;;;;;;6.03;4.37;;;;;;;17.33;59.58;99569.81;6894386;28;20214;-81
2021/10/19 10:18:47;;;;;;;5.63;4.10;;;;;;;17.19;60.24;99580.06;6894445;28;20203;-81
2021/10/19 10:22:15;;;;;;;5.17;4.67;;;;;;;17.09;60.51;99568.00;6890642;28;20232;-82
2021/10/19 10:25:38;;;;;;;5.83;5.30;;;;;;;16.99;60.52;99554.09;6868112;28;20204;-82
2021/10/19 10:29:10;;;;;;;6.57;5.47;;;;;;;16.80;61.01;99508.88;6893486;28;20297;-81
2021/10/19 10:32:33;;;;;;;8.30;5.93;;;;;;;16.89;60.81;99540.19;6893621;28;20890;-81
2021/10/19 10:36:01;;;;;;;6.00;5.50;;;;;;;17.04;61.01;99548.81;6892543;28;20479;-84
2021/10/19 10:39:32;;;;;;;6.70;5.73;;;;;;;17.22;60.46;99537.88;6893547;28;20372;-83
2021/10/19 10:42:55;;;;;;;6.17;5.57;;;;;;;17.38;59.42;99539.97;6892467;28;20286;-83
2021/10/19 10:46:21;;;;;;;10.70;6.17;;;;;;;17.71;58.58;99521.25;6886421;28;20574;-83
2021/10/19 10:49:43;;;;;;;6.87;5.80;;;;;;;18.02;58.08;99521.78;6894111;28;20223;-85
2021/10/19 10:53:08;;;;;;;6.07;5.47;;;;;;;18.06;57.29;99523.00;6894518;28;20227;-82
2021/10/19 10:56:29;;;;;;;5.83;5.23;;;;;;;18.17;56.57;99515.88;6889794;28;20615;-81
2021/10/19 10:59:55;;;;;;;6.80;5.60;;;;;;;17.92;57.42;99516.06;6879554;28;20718;-82
2021/10/19 11:03:19;;;;;;;6.83;5.27;;;;;;;17.71;58.30;99518.53;6876606;28;20235;-83
2021/10/19 11:06:41;;;;;;;4.90;4.50;;;;;;;17.92;57.35;99512.53;6884393;28;20217;-83
2021/10/19 11:10:14;;;;;;;5.10;4.57;;;;;;;18.29;56.02;99464.84;6891303;28;20265;-82
2021/10/19 11:13:48;;;;;;;5.30;4.80;;;;;;;18.60;55.86;99494.50;6868468;28;20204;-81
2021/10/19 11:17:10;;;;;;;6.13;4.83;;;;;;;18.34;56.80;99495.03;6888948;28;20203;-81
2021/10/19 11:20:32;;;;;;;5.00;4.30;;;;;;;18.30;56.93;99483.72;6884473;28;20365;-82
2021/10/19 11:23:55;;;;;;;5.00;4.50;;;;;;;18.58;56.10;99481.09;6865765;28;20243;-81
2021/10/19 11:27:18;;;;;;;5.07;4.07;;;;;;;18.47;55.54;99462.00;6871656;28;20205;-81
2021/10/19 11:30:40;;;;;;;4.23;3.57;;;;;;;18.74;54.81;99477.63;6892270;28;20317;-83
2021/10/19 11:34:02;;;;;;;3.93;3.60;;;;;;;18.76;54.81;99466.47;6866757;28;20201;-81
2021/10/19 11:37:24;;;;;;;4.47;3.43;;;;;;;18.65;55.25;99464.59;6875974;28;20211;-81
2021/10/19 11:40:45;;;;;;;3.90;3.50;;;;;;;18.71;55.09;99437.16;6877411;28;20240;-82
2021/10/19 11:44:10;;;;;;;4.10;3.70;;;;;;;18.66;56.29;99439.78;6891068;28;20207;-82
2021/10/19 11:47:42;;;;;;;4.53;3.90;;;;;;;19.10;54.86;99433.53;6892067;28;20677;-84
2021/10/19 11:51:07;;;;;;;3.63;3.33;;;;;;;19.54;53.58;99431.91;6892840;28;20239;-82
2021/10/19 11:54:31;;;;;;;3.67;3.37;;;;;;;19.67;53.20;99437.06;6891157;28;20637;-81
2021/10/19 11:57:54;;;;;;;3.47;3.17;;;;;;;19.51;53.86;99432.44;6892131;28;20673;-82
2021/10/19 12:01:17;;;;;;;3.70;3.40;;;;;;;19.42;54.15;99417.47;6892710;28;20493;-81
2021/10/19 12:04:43;;;;;;;3.60;3.30;;;;;;;19.30;54.63;99433.13;6891933;28;20208;-82
2021/10/19 12:08:05;;;;;;;4.33;3.10;;;;;;;19.05;55.38;99443.56;6892102;28;20207;-83
2021/10/19 12:11:28;;;;;;;3.73;3.00;;;;;;;19.44;54.08;99432.56;6887384;28;20240;-86
2021/10/19 12:14:55;;;;;;;3.47;3.10;;;;;;;19.30;54.91;99420.28;6891137;28;20235;-81
2021/10/19 12:18:19;;;;;;;3.87;3.00;;;;;;;19.03;54.41;99407.41;6891629;28;20211;-81
2021/10/19 12:21:50;;;;;;;5.00;3.20;;;;;;;19.41;54.88;99432.25;6891182;28;20602;-81
2021/10/19 12:25:11;;;;;;;3.40;3.10;;;;;;;20.30;52.43;99411.00;6891717;28;20260;-81
2021/10/19 12:28:33;;;;;;;2.90;2.60;;;;;;;20.34;52.56;99425.81;6892000;28;20228;-83
2021/10/19 12:31:55;;;;;;;4.33;3.10;;;;;;;19.15;54.19;99323.44;6890408;28;20743;-81
2021/10/19 12:35:18;;;;;;;3.37;3.00;;;;;;;20.47;52.00;99430.97;6891404;28;20197;-81
2021/10/19 12:38:41;;;;;;;3.83;2.83;;;;;;;19.99;52.90;99410.78;6891627;28;20209;-83
2021/10/19 12:42:02;;;;;;;3.17;2.60;;;;;;;19.98;53.27;99409.13;6890678;28;20217;-82
2021/10/19 12:45:24;;;;;;;4.23;2.90;;;;;;;20.43;51.58;99375.00;6892171;28;20233;-82
2021/10/19 12:48:46;;;;;;;2.93;2.70;;;;;;;20.81;50.29;99385.06;6891074;28;20235;-83
2021/10/19 12:52:09;;;;;;;3.63;3.20;;;;;;;20.99;49.68;99390.25;6891148;28;20220;-82
2021/10/19 12:55:31;;;;;;;2.77;2.57;;;;;;;21.22;48.88;99378.97;6890910;28;20224;-81
2021/10/19 12:58:53;;;;;;;4.57;2.70;;;;;;;21.24;49.24;99394.88;6890704;28;20548;-82
2021/10/19 13:02:14;;;;;;;3.03;2.63;;;;;;;21.55;49.11;99383.09;6890579;28;20251;-83
2021/10/19 13:05:36;;;;;;;2.90;2.70;;;;;;;21.52;47.36;99361.69;6891653;28;20247;-82
2021/10/19 13:09:01;;;;;;;3.20;2.80;;;;;;;21.12;47.95;99352.28;6891362;28;20603;-82
2021/10/19 13:12:23;;;;;;;3.43;2.97;;;;;;;21.34;47.99;99362.06;6890922;28;20228;-83
2021/10/19 13:15:45;;;;;;;5.63;3.03;;;;;;;21.69;47.91;99361.56;6889728;28;20204;-81
2021/10/19 13:19:07;;;;;;;4.27;3.13;;;;;;;22.00;47.00;99358.75;6890630;28;20281;-81
2021/10/19 13:22:28;;;;;;;3.93;3.53;;;;;;;22.16;46.45;99356.94;6890826;28;20227;-82
2021/10/19 13:25:52;;;;;;;4.03;3.40;;;;;;;21.83;47.07;99349.88;6891390;28;20215;-82
2021/10/19 13:29:13;;;;;;;4.47;3.33;;;;;;;21.89;46.37;99359.78;6892055;28;20224;-83
2021/10/19 13:32:35;;;;;;;4.10;2.90;;;;;;;21.81;45.69;99329.25;6891196;28;20251;-81
2021/10/19 13:36:00;;;;;;;3.00;2.77;;;;;;;22.16;45.63;99348.69;6891397;28;20612;-81
2021/10/19 13:39:21;;;;;;;3.07;2.77;;;;;;;22.02;44.98;99337.34;6892023;28;20204;-82
2021/10/19 13:42:45;;;;;;;2.90;2.70;;;;;;;22.07;44.42;99329.13;6895899;28;20236;-81
2021/10/19 13:46:06;;;;;;;4.77;3.10;;;;;;;21.87;45.09;99341.91;6898628;28;20212;-81
2021/10/19 13:49:28;;;;;;;3.70;2.87;;;;;;;21.79;45.60;99350.66;6899262;28;20237;-84
2021/10/19 13:52:50;;;;;;;4.77;3.20;;;;;;;21.92;45.29;99348.28;6895770;28;20236;-82
2021/10/19 13:56:13;;;;;;;3.43;3.13;;;;;;;21.47;45.52;99267.50;6897165;28;20215;-82
2021/10/19 13:59:36;;;;;;;3.40;3.10;;;;;;;21.92;45.44;99347.44;6896352;28;20205;-84
2021/10/19 14:02:57;;;;;;;3.30;3.00;;;;;;;22.08;44.91;99340.97;6895230;28;20229;-82
2021/10/19 14:06:19;;;;;;;3.80;3.27;;;;;;;21.54;43.95;99285.41;6896623;28;20209;-82
2021/10/19 14:09:41;;;;;;;2.80;2.43;;;;;;;22.11;44.37;99332.19;6895248;28;20639;-84
2021/10/19 14:13:02;;;;;;;3.73;2.73;;;;;;;22.26;43.32;99329.53;6895068;28;20236;-83
2021/10/19 14:16:26;;;;;;;5.13;3.00;;;;;;;22.23;43.62;99333.63;6895842;28;20215;-82
2021/10/19 14:19:49;;;;;;;3.67;3.10;;;;;;;21.85;44.80;99335.88;6895913;28;20204;-83
2021/10/19 14:23:10;;;;;;;3.23;2.90;;;;;;;21.96;43.95;99332.91;6895591;28;20232;-82
2021/10/19 14:26:33;;;;;;;4.63;3.47;;;;;;;21.81;44.11;99310.88;6896679;28;20235;-82
2021/10/19 14:29:55;;;;;;;4.60;3.70;;;;;;;22.04;43.72;99317.88;6895952;28;20327;-82
2021/10/19 14:33:19;;;;;;;4.93;3.40;;;;;;;21.92;44.43;99326.31;6895132;28;20605;-81
2021/10/19 14:36:42;;;;;;;5.07;3.23;;;;;;;21.69;45.22;99318.47;6895801;28;20274;-82
2021/10/19 14:40:05;;;;;;;3.37;2.90;;;;;;;22.00;45.06;99325.81;6896038;28;20573;-83
2021/10/19 14:43:27;;;;;;;5.60;4.03;;;;;;;21.82;45.58;99318.00;6894923;28;20700;-82
2021/10/19 14:46:49;;;;;;;4.87;3.63;;;;;;;21.92;45.20;99307.09;6895879;28;20205;-82
2021/10/19 14:50:12;;;;;;;4.07;3.67;;;;;;;21.45;46.29;99280.66;6896164;28;20692;-83
2021/10/19 14:53:33;;;;;;;4.17;3.40;;;;;;;20.69;48.55;99313.13;6895060;28;20235;-82
2021/10/19 14:56:55;;;;;;;3.80;3.43;;;;;;;20.90;47.93;99315.00;6896196;28;20216;-82
2021/10/19 15:00:17;;;;;;;3.90;3.53;;;;;;;21.07;47.02;99297.38;6895393;28;20204;-83
2021/10/19 15:03:39;;;;;;;5.70;3.33;;;;;;;21.64;45.83;99298.34;6894624;28;20204;-82
2021/10/19 15:07:02;;;;;;;5.13;3.53;;;;;;;21.16;46.20;99294.97;6894087;28;20240;-84
2021/10/19 15:10:24;;;;;;;4.17;3.37;;;;;;;20.60;46.67;99312.75;6894511;28;20251;-81
2021/10/19 15:13:47;;;;;;;3.70;3.33;;;;;;;21.03;46.17;99301.72;6893750;28;20215;-82
2021/10/19 15:17:09;;;;;;;4.00;3.50;;;;;;;21.48;44.71;99296.63;6894433;28;20685;-84
2021/10/19 15:20:31;;;;;;;4.93;3.50;;;;;;;20.99;44.83;99275.91;6894603;28;20247;-81
2021/10/19 15:23:54;;;;;;;3.33;3.03;;;;;;;21.53;44.34;99286.50;6893779;28;20204;-84
2021/10/19 15:27:15;;;;;;;3.53;3.23;;;;;;;21.46;44.23;99280.41;6895215;28;20204;-81
2021/10/19 15:30:37;;;;;;;4.00;3.60;;;;;;;21.12;44.73;99283.72;6893132;28;20240;-81
2021/10/19 15:33:58;;;;;;;5.13;4.30;;;;;;;21.17;44.75;99281.81;6893508;28;20204;-83
2021/10/19 15:37:20;;;;;;;3.57;3.10;;;;;;;21.30;44.02;99278.63;6894128;28;20205;-83
2021/10/19 15:40:43;;;;;;;4.27;3.47;;;;;;;22.10;42.90;99275.59;6894502;28;20263;-81
2021/10/19 15:44:05;;;;;;;4.30;3.90;;;;;;;21.73;43.68;99267.44;6896239;28;20231;-83
2021/10/19 15:47:26;;;;;;;4.67;4.03;;;;;;;22.15;42.61;99268.22;6893246;28;20673;-84
2021/10/19 15:50:48;;;;;;;6.13;3.50;;;;;;;21.90;42.92;99270.81;6894123;28;20229;-82
2021/10/19 15:54:10;;;;;;;4.00;3.60;;;;;;;22.22;43.14;99262.47;6893375;28;20201;-82
2021/10/19 15:57:32;;;;;;;4.97;3.30;;;;;;;21.23;44.21;99234.16;6893926;28;20680;-81
2021/10/19 16:00:54;;;;;;;4.43;3.50;;;;;;;21.95;43.87;99264.56;6894778;28;20228;-82
2021/10/19 16:04:16;;;;;;;4.03;3.43;;;;;;;22.08;43.42;99275.84;6892993;28;20612;-81
2021/10/19 16:07:37;;;;;;;3.67;3.00;;;;;;;20.97;44.73;99271.75;6893985;28;20212;-82
2021/10/19 16:11:01;;;;;;;4.10;3.27;;;;;;;21.62;44.39;99267.63;6893942;28;20721;-82
2021/10/19 16:14:24;;;;;;;11.47;7.73;;;;;;;21.13;45.64;99266.97;6892944;28;20224;-82
2021/10/19 16:17:46;;;;;;;6.07;4.50;;;;;;;21.44;44.55;99260.66;6893773;28;20283;-82
2021/10/19 16:21:08;;;;;;;6.90;5.63;;;;;;;21.55;44.34;99256.84;6894143;28;20227;-83
2021/10/19 16:24:30;;;;;;;5.57;4.30;;;;;;;21.13;44.97;99257.94;6893322;28;20412;-83
2021/10/19 16:27:51;;;;;;;5.50;4.33;;;;;;;20.84;46.28;99254.63;6893658;28;20223;-85
2021/10/19 16:31:16;;;;;;;4.40;4.00;;;;;;;20.79;46.37;99212.66;6893336;28;20236;-82
2021/10/19 16:34:40;;;;;;;4.10;3.27;;;;;;;21.45;45.75;99248.59;6893757;28;20696;-84
2021/10/19 16:38:02;;;;;;;6.23;3.93;;;;;;;21.37;46.38;99262.78;6893675;28;20220;-82
2021/10/19 16:41:23;;;;;;;6.63;4.17;;;;;;;21.17;47.68;99262.63;6894517;28;20232;-82
2021/10/19 16:44:45;;;;;;;6.13;3.70;;;;;;;20.77;48.55;99269.66;6894116;28;20215;-82
2021/10/19 16:48:08;;;;;;;4.30;3.90;;;;;;;21.04;48.13;99259.50;6893147;28;20244;-83
2021/10/19 16:51:30;;;;;;;4.70;3.83;;;;;;;20.74;47.77;99261.13;6892082;28;20236;-81
2021/10/19 16:54:54;;;;;;;5.90;4.00;;;;;;;20.66;48.14;99224.03;6892282;28;20219;-82
2021/10/19 16:58:16;;;;;;;4.37;3.97;;;;;;;20.95;47.48;99263.81;6892323;28;20303;-81
2021/10/19 17:01:37;;;;;;;5.00;4.10;;;;;;;20.94;48.47;99262.13;6892346;28;20231;-84
2021/10/19 17:05:00;;;;;;;4.17;3.77;;;;;;;20.51;49.07;99256.75;6892846;28;20219;-85
2021/10/19 17:08:23;;;;;;;4.40;3.77;;;;;;;20.67;48.56;99264.84;6892983;28;20216;-82
2021/10/19 17:11:45;;;;;;;4.53;3.53;;;;;;;21.00;47.58;99265.75;6892632;28;20229;-84
2021/10/19 17:15:07;;;;;;;4.30;3.87;;;;;;;20.61;49.09;99281.53;6892719;28;20571;-82
2021/10/19 17:18:29;;;;;;;5.57;4.30;;;;;;;20.57;49.31;99279.56;6893213;28;20239;-81
2021/10/19 17:21:52;;;;;;;5.13;4.23;;;;;;;20.52;49.23;99277.56;6892675;28;20252;-81
2021/10/19 17:25:14;;;;;;;4.87;3.87;;;;;;;20.45;49.55;99267.94;6893244;28;20212;-81
2021/10/19 17:28:35;;;;;;;3.80;3.40;;;;;;;20.32;49.23;99260.94;6893175;28;20270;-81
2021/10/19 17:31:57;;;;;;;3.60;3.30;;;;;;;20.35;49.19;99265.88;6893594;28;20236;-82
2021/10/19 17:35:19;;;;;;;4.40;3.70;;;;;;;20.57;48.48;99266.69;6893759;28;20212;-83
2021/10/19 17:38:42;;;;;;;5.77;3.37;;;;;;;20.42;48.70;99262.94;6896219;28;20583;-84
2021/10/19 17:42:04;;;;;;;7.03;3.77;;;;;;;19.31;51.23;99270.72;6892055;28;20551;-82
2021/10/19 17:45:25;;;;;;;4.43;3.77;;;;;;;19.43;51.25;99275.03;6891093;28;20669;-83
2021/10/19 17:48:47;;;;;;;3.67;3.37;;;;;;;19.78;50.33;99266.50;6891710;28;20208;-82
2021/10/19 17:52:09;;;;;;;3.83;3.43;;;;;;;19.93;49.94;99256.56;6891398;28;20255;-82
2021/10/19 17:55:32;;;;;;;4.67;3.47;;;;;;;20.24;48.96;99257.81;6891539;28;20197;-82
2021/10/19 17:58:53;;;;;;;4.93;4.43;;;;;;;19.99;50.10;99257.47;6884597;28;20204;-82
2021/10/19 18:02:15;;;;;;;8.80;7.60;;;;;;;19.01;53.92;99267.47;6890638;28;20232;-85
2021/10/19 18:05:38;;;;;;;8.03;6.17;;;;;;;19.57;52.68;99272.78;6893038;28;20215;-82
2021/10/19 18:09:00;;;;;;;8.33;7.53;;;;;;;18.86;54.24;99248.91;6883827;28;20213;-83
2021/10/19 18:12:24;;;;;;;15.10;11.07;;;;;;;18.58;55.46;99267.25;6868984;28;20231;-82
2021/10/19 18:15:45;;;;;;;7.07;6.17;;;;;;;18.18;57.26;99270.00;6891129;28;20215;-83
2021/10/19 18:19:07;;;;;;;8.97;6.10;;;;;;;18.49;56.14;99255.88;6888485;28;20230;-82
2021/10/19 18:22:29;;;;;;;11.30;10.00;;;;;;;18.54;55.28;99247.78;6888671;28;20226;-81
2021/10/19 18:25:51;;;;;;;8.40;5.93;;;;;;;18.13;56.19;99230.84;6887497;28;20212;-83
2021/10/19 18:29:15;;;;;;;9.93;6.63;;;;;;;18.15;56.87;99256.81;6878237;28;20215;-82
2021/10/19 18:32:37;;;;;;;8.97;7.53;;;;;;;18.48;56.04;99262.44;6890650;28;20229;-81
2021/10/19 18:36:00;;;;;;;9.87;7.73;;;;;;;18.54;55.12;99246.94;6890424;28;20225;-80
2021/10/19 18:39:22;;;;;;;7.63;5.80;;;;;;;18.60;55.53;99259.63;6891340;28;20372;-80
2021/10/19 18:42:44;;;;;;;6.03;5.10;;;;;;;18.24;56.11;99254.53;6892042;28;20224;-80
2021/10/19 18:46:07;;;;;;;5.43;4.93;;;;;;;17.16;57.19;99140.94;6892661;28;20230;-81
2021/10/19 18:49:29;;;;;;;6.07;5.47;;;;;;;17.75;58.03;99255.97;6892659;28;20210;-83
2021/10/19 18:52:53;;;;;;;6.53;5.40;;;;;;;17.87;56.60;99212.31;6892388;28;20228;-81
2021/10/19 18:56:14;;;;;;;8.60;5.70;;;;;;;18.02;56.63;99231.69;6892412;28;20277;-81
2021/10/19 18:59:36;;;;;;;9.00;6.47;;;;;;;17.63;57.81;99249.69;6892576;28;20209;-81
2021/10/19 19:02:59;;;;;;;6.73;6.07;;;;;;;17.09;56.91;99132.03;6891842;28;20609;-81
2021/10/19 19:06:22;;;;;;;8.03;6.07;;;;;;;17.69;57.19;99248.75;6892654;28;20214;-81
2021/10/19 19:09:44;;;;;;;6.83;6.17;;;;;;;17.37;58.46;99242.00;6892183;28;20213;-83
2021/10/19 19:13:05;;;;;;;7.37;6.67;;;;;;;17.18;58.34;99231.44;6892366;28;20234;-80
2021/10/19 19:16:27;;;;;;;10.83;8.63;;;;;;;16.58;60.20;99243.56;6892186;28;20209;-82